createdAt,value
2023-02-16T00:00:46.482Z,85.29
2023-02-16T00:01:49.047Z,85.70
2023-02-16T00:02:51.440Z,85.70
2023-02-16T00:03:55.285Z,85.45
2023-02-16T00:04:56.887Z,85.16
2023-02-16T00:05:59.521Z,84.64
2023-02-16T00:07:01.395Z,84.17
2023-02-16T00:08:03.974Z,83.50
2023-02-16T00:09:05.569Z,83.24
2023-02-16T00:10:08.480Z,82.97
2023-02-16T00:11:36.490Z,83.11
2023-02-16T00:12:56.427Z,83.19
2023-02-16T00:13:59.405Z,83.31
2023-02-16T00:15:01.894Z,83.29
2023-02-16T00:16:03.583Z,82.96
2023-02-16T00:17:07.155Z,83.36
2023-02-16T00:18:16.877Z,82.92
2023-02-16T00:19:22.185Z,82.56
2023-02-16T00:20:24.024Z,83.50
2023-02-16T00:21:26.773Z,85.32
2023-02-16T00:22:28.367Z,85.57
2023-02-16T00:23:30.977Z,85.79
2023-02-16T00:24:32.822Z,85.27
2023-02-16T00:25:35.472Z,84.96
2023-02-16T00:26:37.222Z,84.91
2023-02-16T00:27:39.787Z,85.03
2023-02-16T00:28:42.202Z,85.35
2023-02-16T00:29:46.169Z,86.13
2023-02-16T00:30:50.177Z,85.85
2023-02-16T00:31:53.117Z,85.37
2023-02-16T00:32:54.757Z,84.57
2023-02-16T00:33:57.288Z,83.96
2023-02-16T00:34:59.009Z,83.70
2023-02-16T00:36:01.499Z,83.32
2023-02-16T00:37:06.735Z,84.35
2023-02-16T00:38:08.376Z,86.38
2023-02-16T00:39:10.889Z,86.92
2023-02-16T00:40:13.580Z,89.77
2023-02-16T00:41:32.595Z,91.05
2023-02-16T00:42:35.748Z,90.70
2023-02-16T00:43:37.400Z,91.20
2023-02-16T00:44:42.972Z,93.26
2023-02-16T00:45:46.051Z,94.68
2023-02-16T00:46:49.138Z,97.57
2023-02-16T00:47:52.986Z,98.90
2023-02-16T00:48:54.521Z,100.00
2023-02-16T00:49:57.085Z,100.00
2023-02-16T00:50:58.644Z,100.00
2023-02-16T00:52:01.349Z,100.00
2023-02-16T00:53:02.961Z,100.00
2023-02-16T00:54:05.672Z,100.00
2023-02-16T00:55:10.083Z,99.85
2023-02-16T00:56:18.075Z,100.00
2023-02-16T00:57:20.618Z,100.00
2023-02-16T00:58:26.636Z,100.00
2023-02-16T00:59:28.300Z,100.00
2023-02-16T01:00:35.014Z,100.00
2023-02-16T01:01:38.404Z,100.00
2023-02-16T01:02:41.219Z,100.00
2023-02-16T01:03:44.413Z,100.00
2023-02-16T01:04:48.859Z,99.52
2023-02-16T01:06:11.593Z,100.00
2023-02-16T01:07:33.260Z,100.00
2023-02-16T01:08:53.411Z,100.00
2023-02-16T01:10:13.660Z,100.00
2023-02-16T01:11:16.202Z,100.00
2023-02-16T01:12:20.842Z,100.00
2023-02-16T01:13:24.203Z,100.00
2023-02-16T01:14:26.277Z,100.00
2023-02-16T01:15:28.996Z,100.00
2023-02-16T01:16:37.360Z,100.00
2023-02-16T01:17:41.358Z,99.10
2023-02-16T01:18:42.986Z,96.89
2023-02-16T01:19:45.556Z,95.05
2023-02-16T01:20:48.067Z,93.07
2023-02-16T01:21:50.769Z,92.10
2023-02-16T01:22:52.622Z,91.05
2023-02-16T01:23:55.156Z,90.10
2023-02-16T01:24:56.687Z,90.02
2023-02-16T01:25:59.549Z,89.45
2023-02-16T01:27:01.196Z,89.76
2023-02-16T01:28:04.376Z,90.94
2023-02-16T01:29:06.592Z,91.28
2023-02-16T01:30:15.388Z,90.47
2023-02-16T01:31:17.622Z,89.75
2023-02-16T01:32:20.559Z,90.05
2023-02-16T01:33:23.790Z,90.69
2023-02-16T01:34:26.526Z,90.08
2023-02-16T01:35:31.578Z,90.35
2023-02-16T01:36:36.284Z,90.10
2023-02-16T01:37:37.962Z,91.49
2023-02-16T01:38:40.598Z,92.75
2023-02-16T01:39:42.201Z,94.29
2023-02-16T01:40:51.965Z,95.48
2023-02-16T01:42:09.464Z,96.15
2023-02-16T01:43:19.847Z,97.83
2023-02-16T01:44:24.705Z,99.45
2023-02-16T01:45:33.978Z,100.00
2023-02-16T01:46:39.758Z,100.00
2023-02-16T01:47:48.485Z,99.81
2023-02-16T01:48:51.906Z,98.01
2023-02-16T01:49:54.610Z,96.59
2023-02-16T01:51:04.317Z,94.63
2023-02-16T01:52:14.140Z,93.21
2023-02-16T01:53:20.989Z,92.32
2023-02-16T01:54:34.047Z,90.94
2023-02-16T01:55:41.588Z,90.17
2023-02-16T01:56:49.065Z,91.07
2023-02-16T01:57:56.260Z,92.26
2023-02-16T01:59:04.772Z,92.42
2023-02-16T02:00:17.445Z,91.90
2023-02-16T02:01:40.548Z,91.47
2023-02-16T02:02:47.971Z,92.18
2023-02-16T02:04:09.727Z,91.92
2023-02-16T02:05:37.803Z,91.30
2023-02-16T02:06:39.506Z,90.48
2023-02-16T02:07:48.388Z,90.03
2023-02-16T02:08:57.208Z,91.22
2023-02-16T02:10:07.138Z,93.41
2023-02-16T02:11:14.337Z,95.65
2023-02-16T02:12:28.767Z,96.73
2023-02-16T02:13:37.963Z,96.57
2023-02-16T02:14:41.462Z,95.73
2023-02-16T02:15:45.027Z,95.40
2023-02-16T02:16:56.678Z,96.10
2023-02-16T02:17:58.701Z,96.37
2023-02-16T02:19:02.712Z,96.79
2023-02-16T02:20:13.866Z,96.36
2023-02-16T02:21:50.314Z,95.07
2023-02-16T02:23:32.768Z,93.59
2023-02-16T02:24:59.570Z,92.64
2023-02-16T02:26:44.427Z,91.39
2023-02-16T02:27:53.915Z,89.75
2023-02-16T02:29:17.641Z,89.41
2023-02-16T02:30:34.506Z,88.96
2023-02-16T02:31:51.429Z,88.49
2023-02-16T02:33:10.613Z,88.69
2023-02-16T02:34:20.493Z,89.87
2023-02-16T02:35:39.822Z,89.68
2023-02-16T02:36:48.929Z,89.24
2023-02-16T02:37:59.453Z,87.78
2023-02-16T02:39:16.373Z,87.92
2023-02-16T02:40:30.129Z,87.76
2023-02-16T02:41:59.683Z,87.11
2023-02-16T02:43:09.357Z,86.53
2023-02-16T02:44:12.980Z,89.24
2023-02-16T02:45:19.574Z,91.99
2023-02-16T02:46:25.597Z,93.25
2023-02-16T02:47:38.888Z,92.74
2023-02-16T02:48:40.595Z,91.59
2023-02-16T02:49:50.672Z,90.39
2023-02-16T02:51:14.102Z,90.98
2023-02-16T02:52:16.890Z,90.94
2023-02-16T02:53:19.149Z,92.84
2023-02-16T02:54:42.827Z,94.32
2023-02-16T02:56:15.551Z,94.04
2023-02-16T02:57:40.400Z,94.63
2023-02-16T02:59:06.889Z,93.13
2023-02-16T03:00:28.607Z,93.82
2023-02-16T03:01:32.894Z,94.86
2023-02-16T03:02:36.490Z,94.04
2023-02-16T03:03:43.729Z,94.40
2023-02-16T03:04:47.034Z,95.45
2023-02-16T03:05:54.402Z,97.21
2023-02-16T03:06:59.067Z,97.80
2023-02-16T03:08:14.333Z,98.71
2023-02-16T03:09:16.857Z,98.24
2023-02-16T03:10:41.042Z,98.83
2023-02-16T03:12:12.652Z,98.75
2023-02-16T03:13:19.861Z,97.76
2023-02-16T03:14:26.758Z,97.42
2023-02-16T03:15:31.220Z,96.82
2023-02-16T03:16:37.797Z,95.51
2023-02-16T03:17:59.434Z,94.41
2023-02-16T03:19:21.246Z,93.90
2023-02-16T03:20:41.301Z,93.19
2023-02-16T03:22:02.407Z,92.17
2023-02-16T03:23:24.897Z,91.51
2023-02-16T03:24:47.319Z,92.45
2023-02-16T03:26:09.475Z,92.59
2023-02-16T03:27:31.555Z,94.01
2023-02-16T03:28:54.901Z,93.20
2023-02-16T03:30:01.141Z,92.21
2023-02-16T03:31:06.941Z,92.10
2023-02-16T03:32:09.828Z,92.79
2023-02-16T03:33:11.609Z,92.48
2023-02-16T03:34:15.454Z,92.26
2023-02-16T03:35:17.260Z,92.16
2023-02-16T03:36:22.961Z,92.29
2023-02-16T03:37:24.593Z,92.26
2023-02-16T03:38:29.141Z,92.00
2023-02-16T03:39:31.923Z,91.86
2023-02-16T03:40:36.462Z,92.14
2023-02-16T03:41:40.653Z,91.95
2023-02-16T03:42:50.174Z,92.37
2023-02-16T03:43:51.874Z,91.72
2023-02-16T03:44:54.813Z,91.56
2023-02-16T03:45:58.079Z,92.63
2023-02-16T03:47:00.964Z,92.98
2023-02-16T03:48:02.593Z,93.17
2023-02-16T03:49:05.306Z,93.09
2023-02-16T03:50:08.061Z,93.14
2023-02-16T03:51:10.593Z,93.10
2023-02-16T03:52:12.274Z,92.49
2023-02-16T03:53:17.024Z,92.52
2023-02-16T03:54:19.622Z,92.58
2023-02-16T03:55:22.129Z,91.89
2023-02-16T03:56:23.958Z,91.40
2023-02-16T03:57:26.513Z,91.29
2023-02-16T03:58:28.196Z,91.15
2023-02-16T03:59:30.898Z,91.28
2023-02-16T04:00:33.290Z,90.89
2023-02-16T04:01:37.169Z,91.61
2023-02-16T04:02:38.820Z,91.66
2023-02-16T04:03:41.314Z,91.60
2023-02-16T04:04:42.943Z,91.54
2023-02-16T04:05:45.884Z,91.89
2023-02-16T04:06:47.472Z,93.62
2023-02-16T04:07:50.146Z,93.32
2023-02-16T04:08:51.753Z,93.43
2023-02-16T04:09:54.290Z,93.30
2023-02-16T04:10:57.413Z,92.86
2023-02-16T04:12:17.481Z,92.38
2023-02-16T04:13:20.221Z,91.89
2023-02-16T04:14:21.925Z,90.65
2023-02-16T04:15:27.880Z,90.40
2023-02-16T04:16:29.552Z,90.39
2023-02-16T04:17:33.512Z,90.35
2023-02-16T04:18:35.045Z,91.03
2023-02-16T04:19:37.643Z,91.56
2023-02-16T04:20:39.262Z,90.99
2023-02-16T04:21:42.943Z,90.99
2023-02-16T04:22:46.593Z,91.20
2023-02-16T04:23:48.276Z,90.63
2023-02-16T04:24:51.957Z,90.02
2023-02-16T04:25:54.630Z,89.21
2023-02-16T04:26:56.221Z,88.19
2023-02-16T04:27:58.835Z,88.50
2023-02-16T04:29:00.731Z,87.96
2023-02-16T04:30:04.329Z,88.05
2023-02-16T04:31:06.253Z,87.53
2023-02-16T04:32:09.252Z,87.84
2023-02-16T04:33:12.315Z,87.66
2023-02-16T04:34:14.876Z,87.37
2023-02-16T04:35:17.524Z,88.78
2023-02-16T04:36:20.131Z,89.67
2023-02-16T04:37:22.931Z,89.67
2023-02-16T04:38:26.147Z,90.39
2023-02-16T04:39:28.818Z,90.30
2023-02-16T04:40:30.409Z,89.69
2023-02-16T04:41:33.045Z,89.49
2023-02-16T04:42:34.765Z,88.93
2023-02-16T04:43:37.398Z,88.44
2023-02-16T04:44:39.000Z,88.13
2023-02-16T04:45:41.664Z,87.36
2023-02-16T04:46:43.302Z,87.43
2023-02-16T04:47:46.328Z,88.00
2023-02-16T04:48:49.770Z,89.35
2023-02-16T04:49:52.411Z,89.02
2023-02-16T04:50:54.036Z,88.51
2023-02-16T04:51:56.722Z,88.99
2023-02-16T04:52:58.487Z,88.87
2023-02-16T04:54:01.567Z,88.67
2023-02-16T04:55:03.239Z,88.65
2023-02-16T04:56:06.188Z,88.66
2023-02-16T04:57:08.355Z,88.46
2023-02-16T04:58:10.878Z,88.20
2023-02-16T04:59:12.775Z,87.97
2023-02-16T05:00:15.845Z,88.01
2023-02-16T05:01:22.416Z,87.91
2023-02-16T05:02:24.170Z,87.46
2023-02-16T05:03:26.800Z,86.87
2023-02-16T05:04:29.844Z,85.93
2023-02-16T05:05:33.472Z,86.95
2023-02-16T05:06:35.706Z,88.32
2023-02-16T05:07:38.553Z,88.29
2023-02-16T05:08:40.535Z,87.91
2023-02-16T05:09:43.381Z,87.39
2023-02-16T05:10:44.961Z,86.73
2023-02-16T05:12:05.357Z,86.35
2023-02-16T05:13:42.386Z,86.70
2023-02-16T05:14:46.150Z,87.29
2023-02-16T05:15:48.831Z,88.11
2023-02-16T05:16:51.091Z,89.25
2023-02-16T05:17:53.645Z,88.96
2023-02-16T05:18:58.338Z,88.70
2023-02-16T05:20:02.812Z,87.72
2023-02-16T05:21:23.438Z,87.43
2023-02-16T05:22:26.574Z,87.05
2023-02-16T05:23:28.160Z,86.81
2023-02-16T05:24:30.817Z,86.45
2023-02-16T05:25:32.434Z,86.58
2023-02-16T05:26:36.192Z,86.47
2023-02-16T05:27:38.812Z,87.61
2023-02-16T05:28:40.517Z,88.19
2023-02-16T05:29:43.258Z,88.68
2023-02-16T05:30:45.212Z,88.71
2023-02-16T05:31:48.599Z,89.29
2023-02-16T05:32:50.212Z,89.46
2023-02-16T05:33:53.367Z,89.39
2023-02-16T05:34:54.939Z,89.22
2023-02-16T05:35:58.851Z,89.75
2023-02-16T05:37:00.459Z,90.36
2023-02-16T05:38:03.109Z,92.09
2023-02-16T05:39:05.002Z,93.47
2023-02-16T05:40:09.078Z,92.70
2023-02-16T05:41:11.002Z,92.28
2023-02-16T05:42:13.571Z,91.25
2023-02-16T05:43:17.582Z,90.71
2023-02-16T05:44:20.362Z,89.66
2023-02-16T05:45:21.963Z,88.36
2023-02-16T05:46:25.598Z,88.05
2023-02-16T05:47:33.691Z,87.03
2023-02-16T05:48:35.365Z,86.69
2023-02-16T05:49:38.295Z,86.16
2023-02-16T05:50:39.891Z,85.80
2023-02-16T05:51:43.980Z,85.39
2023-02-16T05:52:46.169Z,86.63
2023-02-16T05:53:48.953Z,87.28
2023-02-16T05:54:51.660Z,87.35
2023-02-16T05:55:53.587Z,87.42
2023-02-16T05:56:59.358Z,87.73
2023-02-16T05:58:00.998Z,87.90
2023-02-16T05:59:03.757Z,88.63
2023-02-16T06:00:06.540Z,89.56
2023-02-16T06:01:09.135Z,90.80
2023-02-16T06:02:11.914Z,91.74
2023-02-16T06:03:14.755Z,91.41
2023-02-16T06:04:17.623Z,91.48
2023-02-16T06:05:19.395Z,91.06
2023-02-16T06:06:22.052Z,91.29
2023-02-16T06:07:25.117Z,91.41
2023-02-16T06:08:28.096Z,92.73
2023-02-16T06:09:31.521Z,92.59
2023-02-16T06:10:33.211Z,92.13
2023-02-16T06:11:39.257Z,92.08
2023-02-16T06:12:42.741Z,94.16
2023-02-16T06:13:46.603Z,93.58
2023-02-16T06:14:52.600Z,92.73
2023-02-16T06:15:56.009Z,93.38
2023-02-16T06:16:58.806Z,93.36
2023-02-16T06:18:03.223Z,93.42
2023-02-16T06:19:06.705Z,93.97
2023-02-16T06:20:09.701Z,92.88
2023-02-16T06:21:12.616Z,92.34
2023-02-16T06:22:15.384Z,91.86
2023-02-16T06:23:18.487Z,92.13
2023-02-16T06:24:21.084Z,92.86
2023-02-16T06:25:22.791Z,92.68
2023-02-16T06:26:25.888Z,92.18
2023-02-16T06:27:28.823Z,91.92
2023-02-16T06:28:34.488Z,92.75
2023-02-16T06:29:37.066Z,93.33
2023-02-16T06:30:38.758Z,92.90
2023-02-16T06:31:42.823Z,92.43
2023-02-16T06:32:44.584Z,92.77
2023-02-16T06:33:49.888Z,94.60
2023-02-16T06:34:52.484Z,95.98
2023-02-16T06:35:54.324Z,95.48
2023-02-16T06:36:56.998Z,94.12
2023-02-16T06:37:59.201Z,91.89
2023-02-16T06:39:03.330Z,91.51
2023-02-16T06:40:07.230Z,92.17
2023-02-16T06:41:09.437Z,94.96
2023-02-16T06:42:14.627Z,96.91
2023-02-16T06:43:16.356Z,97.40
2023-02-16T06:44:19.162Z,98.21
2023-02-16T06:45:20.894Z,98.28
2023-02-16T06:46:23.578Z,97.97
2023-02-16T06:47:26.316Z,97.80
2023-02-16T06:48:29.025Z,97.37
2023-02-16T06:49:33.098Z,97.07
2023-02-16T06:50:35.486Z,97.27
2023-02-16T06:51:39.062Z,97.34
2023-02-16T06:52:40.696Z,96.79
2023-02-16T06:53:43.243Z,96.32
2023-02-16T06:54:46.229Z,96.92
2023-02-16T06:55:51.698Z,96.16
2023-02-16T06:56:54.424Z,96.15
2023-02-16T06:57:56.026Z,95.96
2023-02-16T06:58:58.571Z,96.73
2023-02-16T07:00:00.203Z,97.77
2023-02-16T07:01:03.473Z,97.75
2023-02-16T07:02:05.356Z,97.36
2023-02-16T07:03:08.271Z,97.19
2023-02-16T07:04:11.614Z,97.17
2023-02-16T07:05:13.196Z,97.29
2023-02-16T07:06:15.727Z,97.77
2023-02-16T07:07:18.515Z,98.02
2023-02-16T07:08:21.189Z,97.32
2023-02-16T07:09:22.910Z,96.97
2023-02-16T07:10:29.305Z,96.61
2023-02-16T07:11:37.310Z,96.38
2023-02-16T07:12:38.935Z,96.67
2023-02-16T07:13:41.911Z,96.66
2023-02-16T07:14:44.306Z,97.29
2023-02-16T07:15:47.884Z,97.05
2023-02-16T07:16:50.505Z,96.95
2023-02-16T07:17:54.022Z,97.18
2023-02-16T07:18:56.651Z,97.17
2023-02-16T07:19:59.998Z,96.58
2023-02-16T07:21:03.203Z,95.72
2023-02-16T07:22:07.881Z,95.35
2023-02-16T07:23:10.583Z,95.35
2023-02-16T07:24:13.169Z,95.30
2023-02-16T07:25:15.920Z,95.27
2023-02-16T07:26:18.924Z,95.41
2023-02-16T07:27:21.476Z,94.58
2023-02-16T07:28:24.112Z,94.06
2023-02-16T07:29:25.735Z,92.69
2023-02-16T07:30:28.615Z,92.10
2023-02-16T07:31:31.240Z,91.43
2023-02-16T07:32:33.002Z,90.92
2023-02-16T07:33:35.574Z,90.16
2023-02-16T07:34:37.300Z,90.61
2023-02-16T07:35:39.951Z,90.80
2023-02-16T07:36:41.718Z,91.71
2023-02-16T07:37:44.195Z,91.97
2023-02-16T07:38:45.784Z,92.03
2023-02-16T07:39:48.994Z,91.31
2023-02-16T07:40:50.581Z,91.10
2023-02-16T07:41:54.516Z,90.46
2023-02-16T07:42:59.701Z,89.53
2023-02-16T07:44:02.462Z,91.03
2023-02-16T07:45:05.939Z,91.23
2023-02-16T07:46:09.881Z,91.58
2023-02-16T07:47:16.792Z,91.69
2023-02-16T07:48:18.658Z,91.28
2023-02-16T07:49:21.363Z,90.90
2023-02-16T07:50:23.274Z,90.72
2023-02-16T07:51:27.298Z,90.60
2023-02-16T07:52:31.200Z,90.88
2023-02-16T07:53:34.080Z,90.35
2023-02-16T07:54:35.765Z,89.32
2023-02-16T07:55:40.653Z,89.60
2023-02-16T07:56:43.302Z,88.75
2023-02-16T07:57:49.276Z,87.79
2023-02-16T07:58:52.839Z,87.29
2023-02-16T07:59:55.754Z,87.11
2023-02-16T08:01:07.275Z,86.19
2023-02-16T08:02:16.853Z,87.07
2023-02-16T08:03:19.550Z,86.78
2023-02-16T08:04:21.173Z,86.29
2023-02-16T08:05:24.413Z,85.94
2023-02-16T08:06:27.306Z,85.33
2023-02-16T08:07:30.029Z,84.96
2023-02-16T08:08:32.371Z,84.50
2023-02-16T08:09:35.549Z,84.85
2023-02-16T08:10:37.082Z,84.53
2023-02-16T08:11:39.982Z,84.71
2023-02-16T08:12:41.693Z,84.73
2023-02-16T08:13:46.211Z,85.36
2023-02-16T08:14:48.804Z,84.81
2023-02-16T08:15:50.581Z,84.44
2023-02-16T08:16:55.596Z,83.68
2023-02-16T08:17:59.317Z,84.22
2023-02-16T08:19:01.449Z,85.57
2023-02-16T08:20:06.118Z,85.50
2023-02-16T08:21:14.384Z,84.52
2023-02-16T08:22:18.307Z,84.15
2023-02-16T08:23:20.889Z,85.38
2023-02-16T08:24:24.960Z,85.89
2023-02-16T08:25:26.570Z,86.17
2023-02-16T08:26:31.510Z,87.08
2023-02-16T08:27:34.035Z,87.83
2023-02-16T08:28:37.932Z,89.56
2023-02-16T08:29:42.671Z,90.02
2023-02-16T08:30:44.873Z,90.48
2023-02-16T08:31:49.049Z,90.33
2023-02-16T08:32:51.868Z,89.62
2023-02-16T08:33:55.954Z,89.48
2023-02-16T08:34:58.585Z,88.79
2023-02-16T08:36:00.174Z,89.46
2023-02-16T08:37:02.900Z,88.69
2023-02-16T08:38:09.018Z,89.12
2023-02-16T08:39:14.906Z,88.73
2023-02-16T08:40:18.405Z,87.97
2023-02-16T08:41:23.184Z,87.69
2023-02-16T08:42:26.203Z,87.97
2023-02-16T08:43:27.788Z,88.27
2023-02-16T08:44:30.519Z,87.17
2023-02-16T08:45:33.492Z,87.46
2023-02-16T08:46:39.410Z,86.96
2023-02-16T08:47:41.963Z,86.42
2023-02-16T08:48:43.942Z,85.68
2023-02-16T08:49:47.225Z,84.52
2023-02-16T08:50:53.992Z,85.36
2023-02-16T08:51:59.804Z,84.83
2023-02-16T08:53:02.481Z,84.46
2023-02-16T08:54:07.847Z,84.46
2023-02-16T08:55:10.486Z,84.08
2023-02-16T08:56:13.469Z,84.50
2023-02-16T08:57:16.093Z,84.10
2023-02-16T08:58:17.842Z,82.80
2023-02-16T08:59:22.552Z,82.25
2023-02-16T09:00:37.735Z,81.57
2023-02-16T09:01:41.665Z,81.65
2023-02-16T09:02:43.339Z,81.39
2023-02-16T09:03:47.266Z,81.49
2023-02-16T09:04:49.722Z,80.38
2023-02-16T09:05:54.980Z,80.12
2023-02-16T09:06:59.451Z,81.91
2023-02-16T09:08:01.234Z,81.68
2023-02-16T09:09:05.020Z,81.85
2023-02-16T09:10:10.693Z,82.84
2023-02-16T09:11:14.235Z,83.74
2023-02-16T09:12:16.757Z,82.75
2023-02-16T09:13:21.733Z,82.97
2023-02-16T09:14:24.443Z,81.90
2023-02-16T09:15:27.619Z,81.71
2023-02-16T09:16:33.857Z,81.65
2023-02-16T09:17:37.532Z,81.71
2023-02-16T09:18:41.226Z,81.24
2023-02-16T09:19:44.643Z,81.35
2023-02-16T09:20:47.089Z,81.11
2023-02-16T09:21:52.070Z,81.01
2023-02-16T09:22:53.992Z,80.31
2023-02-16T09:23:58.340Z,79.99
2023-02-16T09:25:01.304Z,80.01
2023-02-16T09:26:07.747Z,79.05
2023-02-16T09:27:11.618Z,79.93
2023-02-16T09:28:13.872Z,80.21
2023-02-16T09:29:16.644Z,80.32
2023-02-16T09:30:21.850Z,79.54
2023-02-16T09:31:28.692Z,79.05
2023-02-16T09:32:31.925Z,78.08
2023-02-16T09:33:35.931Z,77.71
2023-02-16T09:34:39.029Z,77.53
2023-02-16T09:35:43.224Z,78.01
2023-02-16T09:36:47.548Z,77.84
2023-02-16T09:37:50.796Z,77.64
2023-02-16T09:38:54.130Z,77.63
2023-02-16T09:39:56.909Z,77.57
2023-02-16T09:41:00.207Z,79.07
2023-02-16T09:42:19.534Z,78.55
2023-02-16T09:43:35.016Z,78.47
2023-02-16T09:44:49.383Z,78.04
2023-02-16T09:45:54.889Z,77.74
2023-02-16T09:47:01.926Z,78.22
2023-02-16T09:48:04.868Z,78.58
2023-02-16T09:49:20.366Z,77.81
2023-02-16T09:50:50.327Z,77.83
2023-02-16T09:51:46.788Z,77.22
2023-02-16T09:52:54.510Z,76.98
2023-02-16T09:54:02.288Z,76.79
2023-02-16T09:55:08.223Z,77.27
2023-02-16T09:56:22.184Z,75.61
2023-02-16T09:57:40.718Z,76.17
2023-02-16T09:58:48.122Z,75.86
2023-02-16T09:59:57.115Z,75.41
2023-02-16T10:01:08.466Z,75.75
2023-02-16T10:02:28.455Z,76.20
2023-02-16T10:03:47.709Z,76.45
2023-02-16T10:05:03.307Z,75.62
2023-02-16T10:06:25.625Z,76.07
2023-02-16T10:07:42.527Z,74.84
2023-02-16T10:08:50.174Z,74.97
2023-02-16T10:09:55.301Z,74.67
2023-02-16T10:11:04.764Z,74.54
2023-02-16T10:12:13.778Z,75.23
2023-02-16T10:13:23.766Z,75.44
2023-02-16T10:14:33.931Z,75.16
2023-02-16T10:15:38.153Z,75.38
2023-02-16T10:16:44.217Z,75.12
2023-02-16T10:17:50.014Z,75.31
2023-02-16T10:18:55.409Z,75.02
2023-02-16T10:20:06.159Z,74.41
2023-02-16T10:21:17.679Z,74.38
2023-02-16T10:22:29.663Z,73.93
2023-02-16T10:23:46.129Z,73.41
2023-02-16T10:24:59.061Z,72.64
2023-02-16T10:26:07.298Z,72.16
2023-02-16T10:27:16.001Z,70.97
2023-02-16T10:28:22.767Z,71.14
2023-02-16T10:29:26.894Z,71.65
2023-02-16T10:30:33.688Z,71.57
2023-02-16T10:31:41.852Z,71.04
2023-02-16T10:41:53.576Z,58.17
2023-02-16T10:43:05.203Z,57.40
2023-02-16T10:44:13.734Z,55.98
2023-02-16T10:45:26.294Z,54.64
2023-02-16T10:46:35.491Z,55.31
2023-02-16T10:47:38.939Z,55.62
2023-02-16T10:48:41.663Z,55.26
2023-02-16T10:49:44.565Z,54.31
2023-02-16T10:50:56.508Z,53.47
2023-02-16T10:52:02.246Z,52.43
2023-02-16T10:53:10.324Z,51.68
2023-02-16T10:54:18.179Z,52.62
2023-02-16T10:55:19.808Z,51.42
2023-02-16T10:56:38.216Z,51.33
2023-02-16T10:57:41.782Z,51.31
2023-02-16T10:58:44.886Z,52.30
2023-02-16T10:59:47.211Z,53.64
2023-02-16T11:00:55.667Z,54.42
2023-02-16T11:01:59.105Z,52.99
2023-02-16T11:03:04.019Z,53.37
2023-02-16T11:04:06.259Z,52.95
2023-02-16T11:05:32.264Z,52.15
2023-02-16T11:06:36.482Z,50.82
2023-02-16T11:07:53.666Z,50.00
2023-02-16T11:08:59.284Z,48.60
2023-02-16T11:10:22.090Z,48.10
2023-02-16T11:11:26.286Z,48.11
2023-02-16T11:12:32.845Z,49.20
2023-02-16T11:13:38.033Z,49.89
2023-02-16T11:14:39.910Z,49.21
2023-02-16T11:15:42.695Z,50.76
2023-02-16T11:16:45.871Z,51.28
2023-02-16T11:17:53.477Z,50.43
2023-02-16T11:19:02.239Z,50.22
2023-02-16T11:20:09.581Z,50.48
2023-02-16T11:21:13.319Z,50.66
2023-02-16T11:22:26.750Z,49.53
2023-02-16T11:23:31.676Z,48.86
2023-02-16T11:24:36.867Z,49.78
2023-02-16T11:25:42.650Z,50.82
2023-02-16T11:26:45.238Z,50.48
2023-02-16T11:27:54.571Z,51.38
2023-02-16T11:29:08.771Z,50.12
2023-02-16T11:30:23.434Z,49.47
2023-02-16T11:31:32.749Z,50.76
2023-02-16T11:32:34.494Z,49.14
2023-02-16T11:33:38.594Z,49.41
2023-02-16T11:34:43.857Z,47.79
2023-02-16T11:35:46.236Z,46.91
2023-02-16T11:36:49.310Z,48.13
2023-02-16T11:37:52.266Z,48.38
2023-02-16T11:39:00.383Z,47.34
2023-02-16T11:40:09.206Z,46.61
2023-02-16T11:41:11.232Z,45.77
2023-02-16T11:42:23.524Z,45.70
2023-02-16T11:43:28.460Z,45.62
2023-02-16T11:44:37.899Z,46.08
2023-02-16T11:45:41.951Z,46.26
2023-02-16T11:46:43.525Z,45.80
2023-02-16T11:47:54.685Z,46.34
2023-02-16T11:48:57.358Z,45.32
2023-02-16T11:50:09.813Z,44.69
2023-02-16T11:51:15.254Z,46.09
2023-02-16T11:52:28.334Z,43.99
2023-02-16T11:53:33.243Z,42.96
2023-02-16T11:55:01.045Z,42.36
2023-02-16T11:56:24.021Z,43.67
2023-02-16T11:57:31.033Z,43.49
2023-02-16T11:58:32.686Z,43.74
2023-02-16T11:59:38.741Z,42.50
2023-02-16T12:00:45.046Z,44.23
2023-02-16T12:02:18.764Z,43.63
2023-02-16T12:03:33.306Z,43.45
2023-02-16T12:04:51.793Z,42.88
2023-02-16T12:06:13.316Z,43.40
2023-02-16T12:07:28.837Z,43.54
2023-02-16T12:08:53.667Z,43.10
2023-02-16T12:10:04.635Z,43.54
2023-02-16T12:11:19.371Z,43.68
2023-02-16T12:12:34.106Z,41.90
2023-02-16T12:13:42.693Z,41.54
2023-02-16T12:14:58.596Z,41.90
2023-02-16T12:16:14.196Z,42.38
2023-02-16T12:17:45.596Z,42.41
2023-02-16T12:19:00.057Z,43.16
2023-02-16T12:20:14.983Z,41.98
2023-02-16T12:21:23.123Z,42.19
2023-02-16T12:22:35.111Z,41.59
2023-02-16T12:23:41.177Z,41.90
2023-02-16T12:24:53.343Z,41.32
2023-02-16T12:26:11.421Z,41.67
2023-02-16T12:27:21.059Z,40.28
2023-02-16T12:28:28.875Z,40.54
2023-02-16T12:29:44.986Z,41.16
2023-02-16T12:30:56.706Z,40.82
2023-02-16T12:32:11.111Z,41.68
2023-02-16T12:33:27.718Z,40.00
2023-02-16T12:34:42.751Z,39.95
2023-02-16T12:36:00.804Z,41.45
2023-02-16T12:37:07.819Z,40.33
2023-02-16T12:38:22.812Z,39.87
2023-02-16T12:39:35.438Z,38.82
2023-02-16T12:40:50.523Z,39.44
2023-02-16T12:42:15.731Z,40.93
2023-02-16T12:43:33.677Z,43.16
2023-02-16T12:44:44.641Z,44.16
2023-02-16T12:45:47.338Z,43.38
2023-02-16T12:46:58.715Z,42.95
2023-02-16T12:48:07.253Z,40.28
2023-02-16T12:49:17.734Z,40.10
2023-02-16T12:50:23.701Z,41.00
2023-02-16T12:51:29.704Z,40.30
2023-02-16T12:52:38.841Z,41.05
2023-02-16T12:53:46.916Z,41.30
2023-02-16T12:54:54.051Z,40.92
2023-02-16T12:56:00.874Z,39.17
2023-02-16T12:57:08.748Z,39.15
2023-02-16T12:58:20.714Z,40.41
2023-02-16T12:59:28.600Z,39.93
2023-02-16T13:00:42.025Z,39.85
2023-02-16T13:01:46.635Z,41.53
2023-02-16T13:02:54.858Z,38.94
2023-02-16T13:03:59.892Z,39.94
2023-02-16T13:05:10.213Z,40.61
2023-02-16T13:06:19.549Z,41.19
2023-02-16T13:07:31.794Z,41.52
2023-02-16T13:08:39.865Z,40.64
2023-02-16T13:09:52.263Z,39.43
2023-02-16T13:10:58.935Z,39.28
2023-02-16T13:12:11.556Z,38.01
2023-02-16T13:13:17.630Z,38.65
2023-02-16T13:14:23.526Z,39.27
2023-02-16T13:15:31.689Z,38.28
2023-02-16T13:16:45.036Z,37.32
2023-02-16T13:17:53.880Z,37.06
2023-02-16T13:18:56.355Z,37.32
2023-02-16T13:19:58.835Z,38.45
2023-02-16T13:21:05.112Z,40.25
2023-02-16T13:22:32.216Z,41.39
2023-02-16T13:23:44.993Z,42.01
2023-02-16T13:25:02.661Z,43.16
2023-02-16T13:26:36.797Z,44.76
2023-02-16T13:27:49.160Z,44.77
2023-02-16T13:29:24.033Z,44.30
2023-02-16T13:30:49.556Z,45.19
2023-02-16T13:32:07.148Z,46.36
2023-02-16T13:33:29.496Z,47.77
2023-02-16T13:34:59.404Z,48.46
2023-02-16T13:36:28.006Z,49.51
2023-02-16T13:38:03.086Z,52.28
2023-02-16T13:39:23.841Z,51.63
2023-02-16T13:40:44.916Z,51.68
2023-02-16T13:42:01.471Z,52.42
2023-02-16T13:43:31.022Z,52.88
2023-02-16T13:44:37.738Z,53.63
2023-02-16T13:45:43.590Z,53.06
2023-02-16T13:46:50.380Z,52.75
2023-02-16T13:47:55.276Z,53.87
2023-02-16T13:49:02.172Z,53.49
2023-02-16T13:50:24.867Z,54.35
2023-02-16T13:51:30.986Z,54.69
2023-02-16T13:52:35.933Z,54.77
2023-02-16T13:53:41.662Z,54.45
2023-02-16T13:54:43.805Z,54.76
2023-02-16T13:55:48.120Z,55.18
2023-02-16T13:56:49.761Z,55.37
2023-02-16T13:58:27.136Z,56.43
2023-02-16T14:00:00.486Z,54.82
2023-02-16T14:01:43.166Z,55.73
2023-02-16T14:02:58.540Z,57.99
2023-02-16T14:04:03.167Z,57.77
2023-02-16T14:05:10.807Z,57.02
2023-02-16T14:06:33.568Z,57.25
2023-02-16T14:07:38.010Z,56.83
2023-02-16T14:08:41.908Z,57.07
2023-02-16T14:09:48.550Z,57.18
2023-02-16T14:11:10.680Z,56.83
2023-02-16T14:12:24.234Z,57.35
2023-02-16T14:13:30.265Z,58.00
2023-02-16T14:14:35.640Z,57.80
2023-02-16T14:15:51.757Z,58.46
2023-02-16T14:16:57.501Z,58.52
2023-02-16T14:17:59.161Z,57.28
2023-02-16T14:19:17.537Z,56.14
2023-02-16T14:20:30.384Z,55.67
2023-02-16T14:21:39.526Z,56.56
2023-02-16T14:22:51.854Z,57.22
2023-02-16T14:23:58.742Z,57.16
2023-02-16T14:25:04.169Z,57.89
2023-02-16T14:26:14.893Z,58.37
2023-02-16T14:27:42.656Z,59.34
2023-02-16T14:29:09.458Z,60.48
2023-02-16T14:30:25.834Z,60.88
2023-02-16T14:31:30.864Z,61.24
2023-02-16T14:32:38.792Z,61.10